createdAt,value
2022-10-18T00:01:21.950Z,10.65
2022-10-18T00:04:38.272Z,10.62
2022-10-18T00:07:54.283Z,10.62
2022-10-18T00:14:25.714Z,10.51
2022-10-18T00:17:43.537Z,10.47
2022-10-18T00:21:10.373Z,10.45
2022-10-18T00:24:26.598Z,10.41
2022-10-18T00:31:24.908Z,10.34
2022-10-18T00:34:41.024Z,10.29
2022-10-18T00:37:57.187Z,10.27
2022-10-18T00:45:08.760Z,10.23
2022-10-18T00:48:27.426Z,10.18
2022-10-18T00:51:48.808Z,10.17
2022-10-18T00:58:23.182Z,10.06
2022-10-18T01:01:39.303Z,10.03
2022-10-18T01:04:55.750Z,10.01
2022-10-18T01:08:39.893Z,9.98
2022-10-18T01:15:16.498Z,9.98
2022-10-18T01:18:37.318Z,9.90
2022-10-18T01:21:58.588Z,9.87
2022-10-18T01:25:28.489Z,9.85
2022-10-18T01:29:01.093Z,9.84
2022-10-18T01:32:22.065Z,9.82
2022-10-18T01:35:42.258Z,9.81
2022-10-18T01:39:01.709Z,9.78
2022-10-18T01:42:22.874Z,9.73
2022-10-18T01:45:39.610Z,9.70
2022-10-18T01:48:56.250Z,9.66
2022-10-18T01:52:12.592Z,9.63
2022-10-18T01:58:49.584Z,9.59
2022-10-18T02:02:15.045Z,9.61
2022-10-18T02:05:36.758Z,9.59
2022-10-18T02:08:57.103Z,9.59
2022-10-18T02:15:34.427Z,9.52
2022-10-18T02:18:54.719Z,9.48
2022-10-18T02:22:12.001Z,9.49
2022-10-18T02:25:32.809Z,9.50
2022-10-18T02:28:49.099Z,9.44
2022-10-18T02:32:11.238Z,9.38
2022-10-18T02:35:32.157Z,9.30
2022-10-18T02:38:49.751Z,9.30
2022-10-18T02:42:07.528Z,9.23
2022-10-18T02:45:25.626Z,9.20
2022-10-18T02:48:41.635Z,9.16
2022-10-18T02:51:59.155Z,9.21
2022-10-18T03:00:44.862Z,9.15
2022-10-18T03:04:01.286Z,9.16
2022-10-18T03:07:17.396Z,9.17
2022-10-18T03:10:33.511Z,9.13
2022-10-18T03:13:51.003Z,9.09
2022-10-18T03:17:07.425Z,9.11
2022-10-18T03:20:25.336Z,9.12
2022-10-18T03:23:42.503Z,9.14
2022-10-18T03:26:58.722Z,9.19
2022-10-18T03:30:17.274Z,9.27
2022-10-18T03:33:33.297Z,9.27
2022-10-18T03:36:49.434Z,9.33
2022-10-18T03:40:05.460Z,9.45
2022-10-18T03:46:36.877Z,9.56
2022-10-18T03:49:56.251Z,9.58
2022-10-18T03:53:11.116Z,9.66
2022-10-18T03:59:42.824Z,9.73
2022-10-18T04:02:58.776Z,9.63
2022-10-18T04:06:15.209Z,9.58
2022-10-18T04:09:32.619Z,9.48
2022-10-18T04:16:03.821Z,9.41
2022-10-18T04:19:20.088Z,9.40
2022-10-18T04:22:37.453Z,9.32
2022-10-18T04:25:53.412Z,9.27
2022-10-18T04:29:09.478Z,9.25
2022-10-18T04:32:28.743Z,9.22
2022-10-18T04:35:44.662Z,9.20
2022-10-18T04:39:00.632Z,9.17
2022-10-18T04:42:16.626Z,9.06
2022-10-18T04:45:33.542Z,9.03
2022-10-18T04:48:50.367Z,9.00
2022-10-18T04:52:06.385Z,8.95
2022-10-18T04:55:22.555Z,8.94
2022-10-18T04:58:38.727Z,8.93
2022-10-18T05:01:54.870Z,8.91
2022-10-18T05:05:14.003Z,8.88
2022-10-18T05:08:29.406Z,8.86
2022-10-18T05:15:03.181Z,8.86
2022-10-18T05:18:19.103Z,8.88
2022-10-18T05:21:35.220Z,8.87
2022-10-18T05:24:53.453Z,8.90
2022-10-18T05:31:25.229Z,8.87
2022-10-18T05:34:41.436Z,8.92
2022-10-18T05:37:57.356Z,8.92
2022-10-18T05:41:16.332Z,8.93
2022-10-18T05:44:32.415Z,8.96
2022-10-18T05:47:48.468Z,9.04
2022-10-18T05:51:07.457Z,9.11
2022-10-18T05:54:25.735Z,9.14
2022-10-18T05:57:41.918Z,9.23
2022-10-18T06:00:57.965Z,9.28
2022-10-18T06:04:15.262Z,9.33
2022-10-18T06:07:31.521Z,9.41
2022-10-18T06:15:07.768Z,9.61
2022-10-18T06:18:24.585Z,9.76
2022-10-18T06:21:41.186Z,9.96
2022-10-18T06:24:57.449Z,10.15
2022-10-18T06:28:15.698Z,10.43
2022-10-18T06:31:31.846Z,11.05
2022-10-18T06:34:47.915Z,11.73
2022-10-18T06:38:04.254Z,12.79
2022-10-18T06:44:36.106Z,14.51
2022-10-18T06:47:52.154Z,15.08
2022-10-18T06:51:11.283Z,15.65
2022-10-18T06:54:27.018Z,16.29
2022-10-18T07:00:58.995Z,17.22
2022-10-18T07:04:15.248Z,17.33
2022-10-18T07:07:31.760Z,17.50
2022-10-18T07:10:48.299Z,17.63
2022-10-18T07:17:20.237Z,18.17
2022-10-18T07:20:36.341Z,18.40
2022-10-18T07:23:53.967Z,18.46
2022-10-18T07:27:10.218Z,18.20
2022-10-18T07:30:27.227Z,18.09
2022-10-18T07:33:43.739Z,17.79
2022-10-18T07:37:02.169Z,17.57
2022-10-18T07:40:21.027Z,17.32
2022-10-18T07:43:38.297Z,17.16
2022-10-18T07:46:54.075Z,17.01
2022-10-18T07:50:10.471Z,16.88
2022-10-18T07:53:26.716Z,16.74
2022-10-18T07:59:59.542Z,16.58
2022-10-18T08:03:15.710Z,16.53
2022-10-18T08:06:32.340Z,16.52
2022-10-18T08:09:48.667Z,16.60
2022-10-18T08:16:24.528Z,16.73
2022-10-18T08:19:52.894Z,16.86
2022-10-18T08:23:01.762Z,16.96
2022-10-18T08:29:34.156Z,17.06
2022-10-18T08:32:50.363Z,17.04
2022-10-18T08:36:08.190Z,17.12
2022-10-18T08:39:24.375Z,17.19
2022-10-18T08:45:57.323Z,17.35
2022-10-18T08:49:16.714Z,17.35
2022-10-18T08:56:00.419Z,17.61
2022-10-18T09:02:52.926Z,17.79
2022-10-18T09:06:19.865Z,17.90
2022-10-18T09:09:47.963Z,17.95
2022-10-18T09:16:22.853Z,18.14
2022-10-18T09:19:53.887Z,18.12
2022-10-18T09:23:15.902Z,18.18
2022-10-18T09:29:59.465Z,18.34
2022-10-18T09:33:41.416Z,18.53
2022-10-18T09:37:00.388Z,18.77
2022-10-18T09:40:25.386Z,19.04
2022-10-18T09:43:54.340Z,19.18
2022-10-18T09:47:16.855Z,19.23
2022-10-18T09:50:38.127Z,19.45
2022-10-18T09:54:02.721Z,19.81
2022-10-18T09:57:24.046Z,19.98
2022-10-18T10:00:44.743Z,20.09
2022-10-18T10:04:01.162Z,20.27
2022-10-18T10:07:26.844Z,20.27
2022-10-18T10:10:46.846Z,20.56
2022-10-18T10:14:12.255Z,20.70
2022-10-18T10:17:34.005Z,20.80
2022-10-18T10:20:57.418Z,20.87
2022-10-18T10:24:18.796Z,21.08
2022-10-18T10:27:41.222Z,21.21
2022-10-18T10:30:58.017Z,21.26
2022-10-18T10:34:25.524Z,21.32
2022-10-18T10:37:46.758Z,21.47
2022-10-18T10:41:03.437Z,21.61
2022-10-18T10:44:27.439Z,21.68
2022-10-18T10:47:44.594Z,21.66
2022-10-18T10:51:06.588Z,21.72
2022-10-18T10:54:27.534Z,21.78
2022-10-18T11:00:59.568Z,21.80
2022-10-18T11:04:33.558Z,21.75
2022-10-18T11:07:53.162Z,21.76
2022-10-18T11:11:20.745Z,21.70
2022-10-18T11:17:56.291Z,21.62
2022-10-18T11:21:17.698Z,21.53
2022-10-18T11:24:34.044Z,21.45
2022-10-18T11:27:54.324Z,21.41
2022-10-18T11:31:22.581Z,21.34
2022-10-18T11:35:01.146Z,21.26
2022-10-18T11:38:27.560Z,21.21
2022-10-18T11:41:46.827Z,21.19
2022-10-18T11:46:08.947Z,21.16
2022-10-18T11:50:01.904Z,21.14
2022-10-18T11:53:25.434Z,21.13
2022-10-18T11:56:47.934Z,21.11
2022-10-18T12:00:33.106Z,21.05
2022-10-18T12:04:02.831Z,20.97
2022-10-18T12:07:27.784Z,20.92
2022-10-18T12:11:03.899Z,20.87
2022-10-18T12:14:05.490Z,20.83
2022-10-18T12:17:42.927Z,20.78
2022-10-18T12:20:49.094Z,20.74
2022-10-18T12:24:10.800Z,20.69
2022-10-18T12:30:53.818Z,20.65
2022-10-18T12:34:15.307Z,20.63
2022-10-18T12:38:05.314Z,20.60
2022-10-18T12:41:26.245Z,20.56
2022-10-18T12:44:43.564Z,20.53
2022-10-18T12:48:00.388Z,20.49
2022-10-18T12:51:24.335Z,20.46
2022-10-18T12:54:42.770Z,20.43
2022-10-18T12:58:37.745Z,20.41
2022-10-18T13:02:34.164Z,20.38
2022-10-18T13:06:06.843Z,20.32
2022-10-18T13:09:36.061Z,20.30
2022-10-18T13:13:38.665Z,20.27
2022-10-18T13:16:48.761Z,20.22
2022-10-18T13:20:26.542Z,20.18
2022-10-18T13:23:48.507Z,20.16
2022-10-18T13:27:41.340Z,20.14
2022-10-18T13:31:00.166Z,20.14
2022-10-18T13:34:39.819Z,20.10
2022-10-18T13:38:07.147Z,20.04
2022-10-18T13:41:27.564Z,20.07
2022-10-18T13:44:51.088Z,20.11
2022-10-18T13:48:35.420Z,20.09
2022-10-18T13:52:08.969Z,20.06
2022-10-18T13:55:42.664Z,20.00
2022-10-18T13:59:23.980Z,19.95
2022-10-18T14:03:00.146Z,19.91
2022-10-18T14:06:23.285Z,19.83
2022-10-18T14:09:52.491Z,19.76
2022-10-18T14:13:12.092Z,19.69
2022-10-18T14:16:42.210Z,19.59
2022-10-18T14:20:02.451Z,19.54
2022-10-18T14:23:23.541Z,19.50
2022-10-18T14:29:56.672Z,19.38
2022-10-18T14:33:22.962Z,19.32
2022-10-18T14:36:44.880Z,19.29
2022-10-18T14:40:01.053Z,19.25
2022-10-18T14:43:23.380Z,19.17
2022-10-18T14:46:42.229Z,19.11
2022-10-18T14:49:59.673Z,19.02
2022-10-18T14:53:19.866Z,18.93
2022-10-18T14:56:42.103Z,18.81
2022-10-18T15:00:02.748Z,18.69
2022-10-18T15:03:23.607Z,18.57
2022-10-18T15:06:40.817Z,18.42
2022-10-18T15:09:58.929Z,18.29
2022-10-18T15:13:16.090Z,18.17
2022-10-18T15:16:35.283Z,18.05
2022-10-18T15:20:06.314Z,17.92
2022-10-18T15:23:41.581Z,17.78
2022-10-18T15:27:02.919Z,17.65
2022-10-18T15:30:28.668Z,17.49
2022-10-18T15:33:44.864Z,17.39
2022-10-18T15:37:02.788Z,17.29
2022-10-18T15:40:45.866Z,17.16
2022-10-18T15:44:14.171Z,17.08
2022-10-18T15:47:30.881Z,16.97
2022-10-18T15:50:50.829Z,16.90
2022-10-18T15:54:07.221Z,16.81
2022-10-18T15:57:27.899Z,16.74
2022-10-18T16:00:44.467Z,16.68
2022-10-18T16:04:01.214Z,16.57
2022-10-18T16:07:20.361Z,16.55
2022-10-18T16:10:36.472Z,16.50
2022-10-18T16:13:55.271Z,16.49
2022-10-18T16:17:15.033Z,16.52
2022-10-18T16:20:32.836Z,16.52
2022-10-18T16:23:48.936Z,16.49
2022-10-18T16:27:05.255Z,16.52
2022-10-18T16:30:25.774Z,16.54
2022-10-18T16:33:43.536Z,16.52
2022-10-18T16:37:00.108Z,16.53
2022-10-18T16:40:35.515Z,16.55
2022-10-18T16:43:53.669Z,16.55
2022-10-18T16:47:10.443Z,16.53
2022-10-18T16:50:29.800Z,16.48
2022-10-18T16:53:47.205Z,16.45
2022-10-18T16:57:03.826Z,16.50
2022-10-18T17:00:27.254Z,16.52
2022-10-18T17:03:46.531Z,16.54
2022-10-18T17:07:06.321Z,16.55
2022-10-18T17:10:27.209Z,16.54
2022-10-18T17:13:43.581Z,16.53
2022-10-18T17:16:59.724Z,16.51
2022-10-18T17:20:24.449Z,16.46
2022-10-18T17:23:40.913Z,16.44
2022-10-18T17:26:57.013Z,16.44
2022-10-18T17:30:18.580Z,16.41
2022-10-18T17:33:34.796Z,16.43
2022-10-18T17:36:51.028Z,16.38
2022-10-18T17:40:07.564Z,16.33
2022-10-18T17:43:24.029Z,16.31
2022-10-18T17:46:39.791Z,16.29
2022-10-18T17:49:56.464Z,16.29
2022-10-18T17:53:14.186Z,16.27
2022-10-18T17:56:32.379Z,16.26
2022-10-18T17:59:49.945Z,16.26
2022-10-18T18:03:08.741Z,16.24
2022-10-18T18:06:31.144Z,16.23
2022-10-18T18:09:47.807Z,16.20
2022-10-18T18:13:04.302Z,16.16
2022-10-18T18:16:28.047Z,16.17
2022-10-18T18:19:44.701Z,16.17
2022-10-18T18:23:01.286Z,16.18
2022-10-18T18:26:17.998Z,16.21
2022-10-18T18:29:36.277Z,16.21
2022-10-18T18:32:52.784Z,16.23
2022-10-18T18:36:10.266Z,16.26
2022-10-18T18:39:30.850Z,16.27
2022-10-18T18:43:01.639Z,16.26
2022-10-18T18:46:05.436Z,16.28
2022-10-18T18:49:22.165Z,16.24
2022-10-18T18:52:38.384Z,16.26
2022-10-18T18:55:54.507Z,16.23
2022-10-18T18:59:13.057Z,16.22
2022-10-18T19:02:29.252Z,16.20
2022-10-18T19:05:45.864Z,16.25
2022-10-18T19:09:05.396Z,16.22
2022-10-18T19:12:22.631Z,16.24
2022-10-18T19:15:39.335Z,16.27
2022-10-18T19:19:02.503Z,16.27
2022-10-18T19:22:19.426Z,16.30
2022-10-18T19:25:36.632Z,16.32
2022-10-18T19:28:52.996Z,16.37
2022-10-18T19:32:12.774Z,16.41
2022-10-18T19:35:29.335Z,16.43
2022-10-18T19:38:46.441Z,16.48
2022-10-18T19:42:04.687Z,16.52
2022-10-18T19:45:20.911Z,16.55
2022-10-18T19:48:37.019Z,16.59
2022-10-18T19:51:54.358Z,16.63
2022-10-18T19:55:11.761Z,16.66
2022-10-18T19:58:28.149Z,16.66
2022-10-18T20:01:44.602Z,16.67
2022-10-18T20:05:01.124Z,16.68
2022-10-18T20:08:17.227Z,16.66
2022-10-18T20:11:35.284Z,16.68
2022-10-18T20:14:51.396Z,16.69
2022-10-18T20:18:07.521Z,16.70
2022-10-18T20:21:25.517Z,16.69
2022-10-18T20:24:41.602Z,16.70
2022-10-18T20:27:57.699Z,16.71
2022-10-18T20:31:18.549Z,16.68
2022-10-18T20:34:34.755Z,16.68
2022-10-18T20:37:51.061Z,16.69
2022-10-18T20:41:14.035Z,16.66
2022-10-18T20:44:31.939Z,16.63
2022-10-18T20:47:48.315Z,16.66
2022-10-18T20:51:06.478Z,16.45
2022-10-18T20:54:23.467Z,16.29
2022-10-18T20:57:40.839Z,16.14
2022-10-18T21:00:57.253Z,15.91
2022-10-18T21:04:15.857Z,15.70
2022-10-18T21:07:32.226Z,15.57
2022-10-18T21:10:48.627Z,15.44
2022-10-18T21:14:09.228Z,15.37
2022-10-18T21:17:25.273Z,15.26
2022-10-18T21:20:40.754Z,15.13
2022-10-18T21:23:57.659Z,15.01
2022-10-18T21:27:14.984Z,14.90
2022-10-18T21:30:31.051Z,14.86
2022-10-18T21:33:47.811Z,14.79
2022-10-18T21:37:03.922Z,14.77
2022-10-18T21:40:21.349Z,14.78
2022-10-18T21:43:37.598Z,14.74
2022-10-18T21:46:55.694Z,14.64
2022-10-18T21:50:12.363Z,14.57
2022-10-18T21:53:28.759Z,14.54
2022-10-18T21:56:45.782Z,14.54
2022-10-18T22:00:02.259Z,14.51
2022-10-18T22:03:19.993Z,14.55
2022-10-18T22:06:38.338Z,14.59
2022-10-18T22:09:54.551Z,14.58
2022-10-18T22:13:10.626Z,14.55
2022-10-18T22:16:27.247Z,14.51
2022-10-18T22:19:44.220Z,14.43
2022-10-18T22:23:01.898Z,14.43
2022-10-18T22:26:20.763Z,14.29
2022-10-18T22:29:36.759Z,14.20
2022-10-18T22:32:52.806Z,14.13
2022-10-18T22:36:09.239Z,14.20
2022-10-18T22:39:29.804Z,14.21
2022-10-18T22:42:43.716Z,14.14
2022-10-18T22:45:59.760Z,14.06
2022-10-18T22:49:18.623Z,14.00
2022-10-18T22:52:34.893Z,14.01
2022-10-18T22:55:51.974Z,14.03
2022-10-18T22:59:08.428Z,14.04
2022-10-18T23:02:24.629Z,13.96
2022-10-18T23:05:46.354Z,13.91
2022-10-18T23:09:05.606Z,13.86
2022-10-18T23:12:23.871Z,13.80
2022-10-18T23:15:40.119Z,13.78
2022-10-18T23:18:59.440Z,13.75
2022-10-18T23:22:17.547Z,13.70
2022-10-18T23:25:34.615Z,13.69
2022-10-18T23:28:53.457Z,13.65
2022-10-18T23:32:09.781Z,13.74
2022-10-18T23:35:25.903Z,13.72
2022-10-18T23:38:43.241Z,13.66
2022-10-18T23:41:59.539Z,13.63
2022-10-18T23:45:17.984Z,13.61
2022-10-18T23:48:35.005Z,13.62
2022-10-18T23:51:52.552Z,13.64
2022-10-18T23:55:08.815Z,13.62
2022-10-18T23:58:24.909Z,13.61
